sensor_id;sensor_type;location;lat;lon;timestamp;P1;durP1;ratioP1;P2;durP2;ratioP2
7247;SDS011;3665;51.034;13.642;2023-03-14T00:00:45;1.03;;;0.93;;
7247;SDS011;3665;51.034;13.642;2023-03-14T00:05:41;1.23;;;1.10;;
7247;SDS011;3665;51.034;13.642;2023-03-14T00:10:39;3.17;;;1.40;;
7247;SDS011;3665;51.034;13.642;2023-03-14T00:15:35;2.03;;;1.60;;
7247;SDS011;3665;51.034;13.642;2023-03-14T00:20:20;1.30;;;1.20;;
7247;SDS011;3665;51.034;13.642;2023-03-14T00:25:09;1.60;;;1.23;;
7247;SDS011;3665;51.034;13.642;2023-03-14T00:29:58;1.83;;;1.37;;
7247;SDS011;3665;51.034;13.642;2023-03-14T00:34:47;1.47;;;1.27;;
7247;SDS011;3665;51.034;13.642;2023-03-14T00:39:34;1.57;;;1.27;;
7247;SDS011;3665;51.034;13.642;2023-03-14T00:44:21;3.23;;;1.40;;
7247;SDS011;3665;51.034;13.642;2023-03-14T00:49:09;1.53;;;1.30;;
7247;SDS011;3665;51.034;13.642;2023-03-14T01:10:14;2.20;;;2.00;;
7247;SDS011;3665;51.034;13.642;2023-03-14T01:21:30;2.20;;;1.60;;
7247;SDS011;3665;51.034;13.642;2023-03-14T01:31:48;1.87;;;1.73;;
7247;SDS011;3665;51.034;13.642;2023-03-14T01:36:41;1.30;;;1.20;;
7247;SDS011;3665;51.034;13.642;2023-03-14T01:41:26;1.53;;;1.43;;
7247;SDS011;3665;51.034;13.642;2023-03-14T01:46:29;1.70;;;1.60;;
7247;SDS011;3665;51.034;13.642;2023-03-14T01:56:57;1.50;;;1.40;;
7247;SDS011;3665;51.034;13.642;2023-03-14T02:01:58;1.00;;;1.00;;
7247;SDS011;3665;51.034;13.642;2023-03-14T02:06:47;1.97;;;1.13;;
7247;SDS011;3665;51.034;13.642;2023-03-14T02:11:41;1.20;;;1.10;;
7247;SDS011;3665;51.034;13.642;2023-03-14T02:17:01;1.00;;;0.90;;
7247;SDS011;3665;51.034;13.642;2023-03-14T02:22:13;0.93;;;0.70;;
7247;SDS011;3665;51.034;13.642;2023-03-14T02:32:06;0.50;;;0.50;;
7247;SDS011;3665;51.034;13.642;2023-03-14T02:36:52;0.50;;;0.50;;
7247;SDS011;3665;51.034;13.642;2023-03-14T02:41:40;0.40;;;0.40;;
7247;SDS011;3665;51.034;13.642;2023-03-14T02:46:33;0.30;;;0.30;;
7247;SDS011;3665;51.034;13.642;2023-03-14T02:51:17;0.40;;;0.40;;
7247;SDS011;3665;51.034;13.642;2023-03-14T02:56:04;0.33;;;0.33;;
7247;SDS011;3665;51.034;13.642;2023-03-14T03:00:52;1.13;;;0.40;;
7247;SDS011;3665;51.034;13.642;2023-03-14T03:05:47;0.53;;;0.40;;
7247;SDS011;3665;51.034;13.642;2023-03-14T03:15:49;0.30;;;0.30;;
7247;SDS011;3665;51.034;13.642;2023-03-14T03:20:38;0.50;;;0.50;;
7247;SDS011;3665;51.034;13.642;2023-03-14T03:25:27;0.63;;;0.40;;
7247;SDS011;3665;51.034;13.642;2023-03-14T03:30:14;0.30;;;0.30;;
7247;SDS011;3665;51.034;13.642;2023-03-14T03:35:01;0.40;;;0.40;;
7247;SDS011;3665;51.034;13.642;2023-03-14T03:39:49;0.30;;;0.30;;
7247;SDS011;3665;51.034;13.642;2023-03-14T03:44:38;0.37;;;0.30;;
7247;SDS011;3665;51.034;13.642;2023-03-14T03:49:27;1.50;;;0.40;;
7247;SDS011;3665;51.034;13.642;2023-03-14T03:54:21;0.30;;;0.30;;
7247;SDS011;3665;51.034;13.642;2023-03-14T03:59:38;1.90;;;0.30;;
7247;SDS011;3665;51.034;13.642;2023-03-14T04:04:23;0.47;;;0.47;;
7247;SDS011;3665;51.034;13.642;2023-03-14T04:09:08;0.87;;;0.37;;
7247;SDS011;3665;51.034;13.642;2023-03-14T04:14:05;0.70;;;0.70;;
7247;SDS011;3665;51.034;13.642;2023-03-14T04:19:00;1.10;;;0.40;;
7247;SDS011;3665;51.034;13.642;2023-03-14T04:23:51;1.10;;;0.37;;
7247;SDS011;3665;51.034;13.642;2023-03-14T04:28:36;0.47;;;0.47;;
7247;SDS011;3665;51.034;13.642;2023-03-14T04:33:25;1.50;;;0.60;;
7247;SDS011;3665;51.034;13.642;2023-03-14T04:38:15;1.03;;;0.50;;
7247;SDS011;3665;51.034;13.642;2023-03-14T04:43:01;0.47;;;0.47;;
7247;SDS011;3665;51.034;13.642;2023-03-14T04:47:51;1.40;;;0.67;;
7247;SDS011;3665;51.034;13.642;2023-03-14T04:52:37;1.17;;;0.90;;
7247;SDS011;3665;51.034;13.642;2023-03-14T04:57:25;1.03;;;0.50;;
7247;SDS011;3665;51.034;13.642;2023-03-14T05:02:12;0.93;;;0.70;;
7247;SDS011;3665;51.034;13.642;2023-03-14T05:07:16;1.47;;;0.60;;
7247;SDS011;3665;51.034;13.642;2023-03-14T05:12:30;0.67;;;0.50;;
7247;SDS011;3665;51.034;13.642;2023-03-14T05:17:40;0.70;;;0.53;;
7247;SDS011;3665;51.034;13.642;2023-03-14T05:22:46;2.90;;;0.70;;
7247;SDS011;3665;51.034;13.642;2023-03-14T05:28:00;4.17;;;0.80;;
7247;SDS011;3665;51.034;13.642;2023-03-14T05:33:00;1.33;;;0.80;;
7247;SDS011;3665;51.034;13.642;2023-03-14T05:38:14;1.33;;;0.70;;
7247;SDS011;3665;51.034;13.642;2023-03-14T05:43:19;3.17;;;0.90;;
7247;SDS011;3665;51.034;13.642;2023-03-14T05:48:30;1.90;;;0.60;;
7247;SDS011;3665;51.034;13.642;2023-03-14T05:53:46;1.17;;;0.70;;
7247;SDS011;3665;51.034;13.642;2023-03-14T05:59:01;2.80;;;1.00;;
7247;SDS011;3665;51.034;13.642;2023-03-14T06:04:05;1.40;;;0.77;;
7247;SDS011;3665;51.034;13.642;2023-03-14T06:08:50;4.77;;;1.40;;
7247;SDS011;3665;51.034;13.642;2023-03-14T06:13:41;2.17;;;0.80;;
7247;SDS011;3665;51.034;13.642;2023-03-14T06:18:28;3.63;;;1.07;;
7247;SDS011;3665;51.034;13.642;2023-03-14T06:23:17;2.63;;;1.20;;
7247;SDS011;3665;51.034;13.642;2023-03-14T06:28:04;2.53;;;1.70;;
7247;SDS011;3665;51.034;13.642;2023-03-14T06:32:55;4.07;;;1.00;;
7247;SDS011;3665;51.034;13.642;2023-03-14T06:37:41;2.97;;;1.17;;
7247;SDS011;3665;51.034;13.642;2023-03-14T06:42:31;3.03;;;0.90;;
7247;SDS011;3665;51.034;13.642;2023-03-14T06:47:18;3.37;;;1.20;;
7247;SDS011;3665;51.034;13.642;2023-03-14T06:52:08;2.43;;;0.87;;
7247;SDS011;3665;51.034;13.642;2023-03-14T06:56:53;1.67;;;0.80;;
7247;SDS011;3665;51.034;13.642;2023-03-14T07:01:43;4.23;;;1.23;;
7247;SDS011;3665;51.034;13.642;2023-03-14T07:06:29;1.37;;;1.00;;
7247;SDS011;3665;51.034;13.642;2023-03-14T07:11:18;1.53;;;0.87;;
7247;SDS011;3665;51.034;13.642;2023-03-14T07:16:07;1.40;;;0.80;;
7247;SDS011;3665;51.034;13.642;2023-03-14T07:20:52;1.80;;;0.90;;
7247;SDS011;3665;51.034;13.642;2023-03-14T07:25:41;2.53;;;0.70;;
7247;SDS011;3665;51.034;13.642;2023-03-14T07:30:31;3.37;;;0.90;;
7247;SDS011;3665;51.034;13.642;2023-03-14T07:35:18;1.90;;;0.87;;
7247;SDS011;3665;51.034;13.642;2023-03-14T07:40:06;2.53;;;1.00;;
7247;SDS011;3665;51.034;13.642;2023-03-14T07:44:53;2.03;;;0.93;;
7247;SDS011;3665;51.034;13.642;2023-03-14T07:49:40;1.83;;;0.80;;
7247;SDS011;3665;51.034;13.642;2023-03-14T07:54:30;1.50;;;0.63;;
7247;SDS011;3665;51.034;13.642;2023-03-14T07:59:19;0.90;;;0.70;;
7247;SDS011;3665;51.034;13.642;2023-03-14T08:04:06;2.37;;;0.77;;
7247;SDS011;3665;51.034;13.642;2023-03-14T08:08:52;2.33;;;0.60;;
7247;SDS011;3665;51.034;13.642;2023-03-14T08:13:42;1.53;;;0.50;;
7247;SDS011;3665;51.034;13.642;2023-03-14T08:18:31;0.50;;;0.50;;
7247;SDS011;3665;51.034;13.642;2023-03-14T08:23:34;0.67;;;0.60;;
7247;SDS011;3665;51.034;13.642;2023-03-14T08:28:23;2.10;;;0.70;;
7247;SDS011;3665;51.034;13.642;2023-03-14T08:33:26;0.53;;;0.53;;
7247;SDS011;3665;51.034;13.642;2023-03-14T08:38:22;1.67;;;0.57;;
7247;SDS011;3665;51.034;13.642;2023-03-14T08:43:18;0.87;;;0.60;;
7247;SDS011;3665;51.034;13.642;2023-03-14T08:48:05;1.03;;;0.80;;
7247;SDS011;3665;51.034;13.642;2023-03-14T08:52:59;2.13;;;0.50;;
7247;SDS011;3665;51.034;13.642;2023-03-14T08:58:00;2.60;;;0.67;;
7247;SDS011;3665;51.034;13.642;2023-03-14T09:02:54;0.93;;;0.70;;
7247;SDS011;3665;51.034;13.642;2023-03-14T09:07:48;1.10;;;0.60;;
7247;SDS011;3665;51.034;13.642;2023-03-14T09:12:39;1.90;;;0.67;;
7247;SDS011;3665;51.034;13.642;2023-03-14T09:17:24;1.07;;;0.60;;
7247;SDS011;3665;51.034;13.642;2023-03-14T09:22:12;1.90;;;0.53;;
7247;SDS011;3665;51.034;13.642;2023-03-14T09:32:06;1.70;;;0.70;;
7247;SDS011;3665;51.034;13.642;2023-03-14T09:36:53;1.80;;;0.90;;
7247;SDS011;3665;51.034;13.642;2023-03-14T09:41:41;1.37;;;0.93;;
7247;SDS011;3665;51.034;13.642;2023-03-14T09:46:30;0.40;;;0.40;;
7247;SDS011;3665;51.034;13.642;2023-03-14T09:51:19;1.60;;;0.60;;
7247;SDS011;3665;51.034;13.642;2023-03-14T09:56:09;2.43;;;0.80;;
7247;SDS011;3665;51.034;13.642;2023-03-14T10:01:10;1.47;;;0.50;;
7247;SDS011;3665;51.034;13.642;2023-03-14T10:05:57;1.87;;;0.50;;
7247;SDS011;3665;51.034;13.642;2023-03-14T10:10:45;0.63;;;0.50;;
7247;SDS011;3665;51.034;13.642;2023-03-14T10:15:33;0.70;;;0.50;;
7247;SDS011;3665;51.034;13.642;2023-03-14T10:20:28;0.50;;;0.50;;
7247;SDS011;3665;51.034;13.642;2023-03-14T10:25:26;1.77;;;0.50;;
7247;SDS011;3665;51.034;13.642;2023-03-14T10:30:27;0.40;;;0.40;;
7247;SDS011;3665;51.034;13.642;2023-03-14T10:35:21;1.23;;;0.50;;
7247;SDS011;3665;51.034;13.642;2023-03-14T10:40:12;1.30;;;0.50;;
7247;SDS011;3665;51.034;13.642;2023-03-14T10:45:21;0.37;;;0.30;;
7247;SDS011;3665;51.034;13.642;2023-03-14T10:50:21;0.90;;;0.50;;
7247;SDS011;3665;51.034;13.642;2023-03-14T10:55:16;1.27;;;0.50;;
7247;SDS011;3665;51.034;13.642;2023-03-14T11:00:09;2.37;;;0.80;;
7247;SDS011;3665;51.034;13.642;2023-03-14T11:05:30;1.83;;;0.87;;
7247;SDS011;3665;51.034;13.642;2023-03-14T11:10:31;0.30;;;0.30;;
7247;SDS011;3665;51.034;13.642;2023-03-14T11:15:18;1.20;;;0.47;;
7247;SDS011;3665;51.034;13.642;2023-03-14T11:25:42;0.40;;;0.40;;
7247;SDS011;3665;51.034;13.642;2023-03-14T11:30:45;0.57;;;0.50;;
7247;SDS011;3665;51.034;13.642;2023-03-14T11:35:35;2.20;;;0.50;;
7247;SDS011;3665;51.034;13.642;2023-03-14T11:40:42;1.90;;;0.63;;
7247;SDS011;3665;51.034;13.642;2023-03-14T11:45:42;0.67;;;0.40;;
7247;SDS011;3665;51.034;13.642;2023-03-14T11:50:28;0.40;;;0.40;;
7247;SDS011;3665;51.034;13.642;2023-03-14T11:55:17;0.50;;;0.40;;
7247;SDS011;3665;51.034;13.642;2023-03-14T12:00:05;1.07;;;0.60;;
7247;SDS011;3665;51.034;13.642;2023-03-14T12:05:28;2.03;;;0.57;;
7247;SDS011;3665;51.034;13.642;2023-03-14T12:10:29;0.40;;;0.40;;
7247;SDS011;3665;51.034;13.642;2023-03-14T12:15:34;1.77;;;0.50;;
7247;SDS011;3665;51.034;13.642;2023-03-14T12:20:37;0.40;;;0.40;;
7247;SDS011;3665;51.034;13.642;2023-03-14T12:25:25;0.93;;;0.47;;
7247;SDS011;3665;51.034;13.642;2023-03-14T12:30:15;1.07;;;0.47;;
7247;SDS011;3665;51.034;13.642;2023-03-14T12:35:36;0.30;;;0.30;;
7247;SDS011;3665;51.034;13.642;2023-03-14T12:40:21;0.30;;;0.30;;
7247;SDS011;3665;51.034;13.642;2023-03-14T12:45:40;0.53;;;0.30;;
7247;SDS011;3665;51.034;13.642;2023-03-14T12:50:38;0.50;;;0.30;;
7247;SDS011;3665;51.034;13.642;2023-03-14T12:55:54;0.20;;;0.20;;
7247;SDS011;3665;51.034;13.642;2023-03-14T13:00:54;0.63;;;0.30;;
7247;SDS011;3665;51.034;13.642;2023-03-14T13:10:48;1.63;;;0.40;;
7247;SDS011;3665;51.034;13.642;2023-03-14T13:15:38;0.83;;;0.30;;
7247;SDS011;3665;51.034;13.642;2023-03-14T13:20:38;0.30;;;0.30;;
7247;SDS011;3665;51.034;13.642;2023-03-14T13:25:30;0.20;;;0.20;;
7247;SDS011;3665;51.034;13.642;2023-03-14T13:30:35;0.20;;;0.20;;
7247;SDS011;3665;51.034;13.642;2023-03-14T13:35:41;0.40;;;0.30;;
7247;SDS011;3665;51.034;13.642;2023-03-14T13:40:36;0.83;;;0.20;;
7247;SDS011;3665;51.034;13.642;2023-03-14T13:45:24;0.20;;;0.20;;
7247;SDS011;3665;51.034;13.642;2023-03-14T13:50:17;0.30;;;0.20;;
7247;SDS011;3665;51.034;13.642;2023-03-14T13:55:02;0.57;;;0.40;;
7247;SDS011;3665;51.034;13.642;2023-03-14T14:00:04;0.50;;;0.50;;
7247;SDS011;3665;51.034;13.642;2023-03-14T14:04:53;0.30;;;0.20;;
7247;SDS011;3665;51.034;13.642;2023-03-14T14:09:44;1.10;;;0.30;;
7247;SDS011;3665;51.034;13.642;2023-03-14T14:14:31;1.03;;;0.33;;
7247;SDS011;3665;51.034;13.642;2023-03-14T14:19:19;0.30;;;0.30;;
7247;SDS011;3665;51.034;13.642;2023-03-14T14:24:07;0.47;;;0.30;;
7247;SDS011;3665;51.034;13.642;2023-03-14T14:28:58;0.60;;;0.60;;
7247;SDS011;3665;51.034;13.642;2023-03-14T14:33:58;0.43;;;0.40;;
7247;SDS011;3665;51.034;13.642;2023-03-14T14:38:50;0.97;;;0.30;;
7247;SDS011;3665;51.034;13.642;2023-03-14T14:43:35;0.20;;;0.20;;
7247;SDS011;3665;51.034;13.642;2023-03-14T14:48:23;0.40;;;0.40;;
7247;SDS011;3665;51.034;13.642;2023-03-14T14:53:19;0.30;;;0.30;;
7247;SDS011;3665;51.034;13.642;2023-03-14T14:58:18;0.20;;;0.20;;
7247;SDS011;3665;51.034;13.642;2023-03-14T15:03:18;0.77;;;0.30;;
7247;SDS011;3665;51.034;13.642;2023-03-14T15:08:08;0.30;;;0.30;;
7247;SDS011;3665;51.034;13.642;2023-03-14T15:12:53;0.53;;;0.43;;
7247;SDS011;3665;51.034;13.642;2023-03-14T15:17:41;0.23;;;0.23;;
7247;SDS011;3665;51.034;13.642;2023-03-14T15:22:28;0.40;;;0.40;;
7247;SDS011;3665;51.034;13.642;2023-03-14T15:27:18;0.77;;;0.40;;
7247;SDS011;3665;51.034;13.642;2023-03-14T15:32:05;1.10;;;0.50;;
7247;SDS011;3665;51.034;13.642;2023-03-14T15:36:55;0.63;;;0.30;;
7247;SDS011;3665;51.034;13.642;2023-03-14T15:41:42;0.40;;;0.40;;
7247;SDS011;3665;51.034;13.642;2023-03-14T15:46:29;0.43;;;0.30;;
7247;SDS011;3665;51.034;13.642;2023-03-14T15:51:17;0.43;;;0.43;;
7247;SDS011;3665;51.034;13.642;2023-03-14T15:56:07;0.67;;;0.67;;
7247;SDS011;3665;51.034;13.642;2023-03-14T16:00:55;0.43;;;0.43;;
7247;SDS011;3665;51.034;13.642;2023-03-14T16:05:42;1.50;;;0.57;;
7247;SDS011;3665;51.034;13.642;2023-03-14T16:10:28;0.77;;;0.70;;
7247;SDS011;3665;51.034;13.642;2023-03-14T16:15:20;0.50;;;0.50;;
7247;SDS011;3665;51.034;13.642;2023-03-14T16:20:04;0.30;;;0.30;;
7247;SDS011;3665;51.034;13.642;2023-03-14T16:24:54;0.47;;;0.40;;
7247;SDS011;3665;51.034;13.642;2023-03-14T16:29:42;0.67;;;0.50;;
7247;SDS011;3665;51.034;13.642;2023-03-14T16:34:48;0.50;;;0.30;;
7247;SDS011;3665;51.034;13.642;2023-03-14T16:39:34;0.93;;;0.50;;
7247;SDS011;3665;51.034;13.642;2023-03-14T16:44:58;2.27;;;0.50;;
7247;SDS011;3665;51.034;13.642;2023-03-14T16:50:17;1.30;;;0.40;;
7247;SDS011;3665;51.034;13.642;2023-03-14T16:55:01;0.50;;;0.50;;
7247;SDS011;3665;51.034;13.642;2023-03-14T16:59:48;1.10;;;0.97;;
7247;SDS011;3665;51.034;13.642;2023-03-14T17:04:50;4.17;;;1.17;;
7247;SDS011;3665;51.034;13.642;2023-03-14T17:09:38;0.70;;;0.50;;
7247;SDS011;3665;51.034;13.642;2023-03-14T17:14:25;1.00;;;0.70;;
7247;SDS011;3665;51.034;13.642;2023-03-14T17:19:13;0.77;;;0.63;;
7247;SDS011;3665;51.034;13.642;2023-03-14T17:24:00;1.50;;;1.00;;
7247;SDS011;3665;51.034;13.642;2023-03-14T17:28:56;1.13;;;0.93;;
7247;SDS011;3665;51.034;13.642;2023-03-14T17:33:54;0.50;;;0.50;;
7247;SDS011;3665;51.034;13.642;2023-03-14T17:38:40;0.83;;;0.53;;
7247;SDS011;3665;51.034;13.642;2023-03-14T17:43:27;0.67;;;0.30;;
7247;SDS011;3665;51.034;13.642;2023-03-14T17:48:15;0.40;;;0.33;;
7247;SDS011;3665;51.034;13.642;2023-03-14T17:53:04;0.77;;;0.60;;
7247;SDS011;3665;51.034;13.642;2023-03-14T17:57:51;1.30;;;0.50;;
7247;SDS011;3665;51.034;13.642;2023-03-14T18:02:39;0.90;;;0.90;;
7247;SDS011;3665;51.034;13.642;2023-03-14T18:07:27;0.70;;;0.70;;
7247;SDS011;3665;51.034;13.642;2023-03-14T18:12:17;2.80;;;1.43;;
7247;SDS011;3665;51.034;13.642;2023-03-14T18:17:05;5.30;;;1.60;;
7247;SDS011;3665;51.034;13.642;2023-03-14T18:21:52;5.83;;;1.60;;
7247;SDS011;3665;51.034;13.642;2023-03-14T18:26:40;1.10;;;1.00;;
7247;SDS011;3665;51.034;13.642;2023-03-14T18:31:27;1.53;;;0.90;;
7247;SDS011;3665;51.034;13.642;2023-03-14T18:36:14;2.87;;;1.30;;
7247;SDS011;3665;51.034;13.642;2023-03-14T18:41:08;3.33;;;1.33;;
7247;SDS011;3665;51.034;13.642;2023-03-14T18:45:54;4.27;;;1.30;;
7247;SDS011;3665;51.034;13.642;2023-03-14T18:50:40;3.43;;;1.10;;
7247;SDS011;3665;51.034;13.642;2023-03-14T18:55:29;2.77;;;0.93;;
7247;SDS011;3665;51.034;13.642;2023-03-14T19:00:15;4.37;;;1.57;;
7247;SDS011;3665;51.034;13.642;2023-03-14T19:05:04;2.47;;;0.97;;
7247;SDS011;3665;51.034;13.642;2023-03-14T19:09:51;3.17;;;1.43;;
7247;SDS011;3665;51.034;13.642;2023-03-14T19:14:37;10.13;;;1.63;;
7247;SDS011;3665;51.034;13.642;2023-03-14T19:19:32;7.33;;;2.63;;
7247;SDS011;3665;51.034;13.642;2023-03-14T19:24:17;9.50;;;2.67;;
7247;SDS011;3665;51.034;13.642;2023-03-14T19:29:03;11.73;;;2.40;;
7247;SDS011;3665;51.034;13.642;2023-03-14T19:33:57;6.33;;;1.90;;
7247;SDS011;3665;51.034;13.642;2023-03-14T19:38:40;9.00;;;2.03;;
7247;SDS011;3665;51.034;13.642;2023-03-14T19:43:27;6.67;;;2.10;;
7247;SDS011;3665;51.034;13.642;2023-03-14T19:48:16;5.97;;;1.60;;
7247;SDS011;3665;51.034;13.642;2023-03-14T19:53:06;6.83;;;1.97;;
7247;SDS011;3665;51.034;13.642;2023-03-14T19:57:53;3.83;;;1.63;;
7247;SDS011;3665;51.034;13.642;2023-03-14T20:02:42;10.97;;;2.30;;
7247;SDS011;3665;51.034;13.642;2023-03-14T20:07:29;5.17;;;1.80;;
7247;SDS011;3665;51.034;13.642;2023-03-14T20:12:17;4.70;;;1.63;;
7247;SDS011;3665;51.034;13.642;2023-03-14T20:17:03;4.53;;;2.13;;
7247;SDS011;3665;51.034;13.642;2023-03-14T20:21:51;11.27;;;2.00;;
7247;SDS011;3665;51.034;13.642;2023-03-14T20:26:43;7.53;;;2.63;;
7247;SDS011;3665;51.034;13.642;2023-03-14T20:31:44;7.50;;;2.20;;
7247;SDS011;3665;51.034;13.642;2023-03-14T20:36:32;10.40;;;2.43;;
7247;SDS011;3665;51.034;13.642;2023-03-14T20:41:20;7.93;;;2.00;;
7247;SDS011;3665;51.034;13.642;2023-03-14T20:46:07;6.03;;;2.17;;
7247;SDS011;3665;51.034;13.642;2023-03-14T20:51:48;7.80;;;2.10;;
7247;SDS011;3665;51.034;13.642;2023-03-14T20:57:44;4.43;;;1.70;;
7247;SDS011;3665;51.034;13.642;2023-03-14T21:04:17;5.87;;;1.40;;
7247;SDS011;3665;51.034;13.642;2023-03-14T21:09:45;7.73;;;2.17;;
7247;SDS011;3665;51.034;13.642;2023-03-14T21:15:36;3.50;;;1.63;;
7247;SDS011;3665;51.034;13.642;2023-03-14T21:28:34;7.57;;;2.07;;
7247;SDS011;3665;51.034;13.642;2023-03-14T21:46:29;5.50;;;2.23;;
7247;SDS011;3665;51.034;13.642;2023-03-14T21:52:02;7.20;;;2.33;;
7247;SDS011;3665;51.034;13.642;2023-03-14T21:57:58;10.70;;;1.97;;
7247;SDS011;3665;51.034;13.642;2023-03-14T22:37:56;4.57;;;1.73;;
7247;SDS011;3665;51.034;13.642;2023-03-14T22:42:57;5.13;;;1.40;;
7247;SDS011;3665;51.034;13.642;2023-03-14T22:47:44;6.00;;;1.50;;
7247;SDS011;3665;51.034;13.642;2023-03-14T22:52:33;10.97;;;2.20;;
7247;SDS011;3665;51.034;13.642;2023-03-14T22:57:19;8.97;;;2.80;;
7247;SDS011;3665;51.034;13.642;2023-03-14T23:02:07;6.63;;;2.20;;
7247;SDS011;3665;51.034;13.642;2023-03-14T23:06:56;7.23;;;2.50;;
7247;SDS011;3665;51.034;13.642;2023-03-14T23:11:44;4.57;;;1.60;;
7247;SDS011;3665;51.034;13.642;2023-03-14T23:17:04;5.63;;;1.70;;
7247;SDS011;3665;51.034;13.642;2023-03-14T23:21:51;6.87;;;1.90;;
7247;SDS011;3665;51.034;13.642;2023-03-14T23:26:41;9.60;;;2.23;;
7247;SDS011;3665;51.034;13.642;2023-03-14T23:31:45;6.83;;;2.37;;
7247;SDS011;3665;51.034;13.642;2023-03-14T23:36:33;4.10;;;1.60;;
7247;SDS011;3665;51.034;13.642;2023-03-14T23:41:19;5.87;;;1.87;;
7247;SDS011;3665;51.034;13.642;2023-03-14T23:46:08;5.17;;;1.93;;
7247;SDS011;3665;51.034;13.642;2023-03-14T23:50:55;4.93;;;1.53;;
7247;SDS011;3665;51.034;13.642;2023-03-14T23:55:43;4.80;;;2.53;;
